Time;durP1;ratioP1;P1;durP2;ratioP2;P2;SDS_P1;SDS_P2;PMS_P1;PMS_P2;Temp;Humidity;BMP_temperature;BMP_pressure;BME280_temperature;BME280_humidity;BME280_pressure;Samples;Min_cycle;Max_cycle;Signal;HPM_P1;HPM_P2
2022/03/05 00:00:08;;;;;;;;;;;;;;;10.86;36.48;99821.19;4499905;31;34475;-65
2022/03/05 00:02:37;;;;;;;;;;;;;;;10.90;36.20;99806.59;4489541;31;33082;-65
2022/03/05 00:05:05;;;;;;;;;;;;;;;10.91;36.45;99821.69;4490849;31;34007;-66
2022/03/05 00:07:33;;;;;;;;;;;;;;;10.56;37.33;99821.62;4491797;31;37968;-65
2022/03/05 00:10:00;;;;;;;;;;;;;;;10.47;37.74;99821.34;4487065;31;34261;-65
2022/03/05 00:12:28;;;;;;;;;;;;;;;10.87;36.61;99815.72;4487194;31;33104;-65
2022/03/05 00:14:56;;;;;;;;;;;;;;;10.92;36.37;99821.59;4496338;31;34103;-64
2022/03/05 00:17:24;;;;;;;;;;;;;;;10.84;36.25;99815.94;4485457;31;35260;-64
2022/03/05 00:19:51;;;;;;;;;;;;;;;10.38;37.51;99814.00;4486360;31;34087;-66
2022/03/05 00:22:20;;;;;;;;;;;;;;;10.70;37.00;99816.13;4496430;31;33397;-64
2022/03/05 00:24:47;;;;;;;;;;;;;;;10.71;36.89;99821.34;4487962;31;35727;-65
2022/03/05 00:27:17;;;;;;;;;;;;;;;10.78;36.43;99813.72;4494933;31;35766;-65
2022/03/05 00:29:44;;;;;;;;;;;;;;;9.83;38.79;99817.91;4491975;31;33704;-65
2022/03/05 00:32:12;;;;;;;;;;;;;;;10.19;38.23;99813.59;4489133;31;33386;-65
2022/03/05 00:34:40;;;;;;;;;;;;;;;10.36;37.96;99812.38;4489866;31;35283;-65
2022/03/05 00:37:10;;;;;;;;;;;;;;;10.44;37.73;99820.72;4491159;31;34522;-65
2022/03/05 00:39:39;;;;;;;;;;;;;;;10.49;37.51;99811.37;4486595;31;33917;-68
2022/03/05 00:42:07;;;;;;;;;;;;;;;10.31;38.02;99811.88;4483660;31;33121;-67
2022/03/05 00:44:35;;;;;;;;;;;;;;;10.22;38.10;99810.69;4495041;31;34202;-68
2022/03/05 00:47:03;;;;;;;;;;;;;;;10.10;38.13;99811.56;4486925;31;34150;-66
2022/03/05 00:49:31;;;;;;;;;;;;;;;10.29;37.64;99805.78;4484793;31;33948;-65
2022/03/05 00:51:59;;;;;;;;;;;;;;;10.46;37.21;99806.25;4485889;31;34544;-66
2022/03/05 00:54:27;;;;;;;;;;;;;;;10.69;35.97;99804.56;4483006;31;34235;-64
2022/03/05 00:56:56;;;;;;;;;;;;;;;10.73;35.88;99798.00;4488929;31;35366;-65
2022/03/05 00:59:24;;;;;;;;;;;;;;;10.62;36.33;99797.09;4484243;31;35206;-66
2022/03/05 01:01:51;;;;;;;;;;;;;;;10.66;35.84;99790.56;4487313;31;33099;-66
2022/03/05 01:04:20;;;;;;;;;;;;;;;10.68;35.72;99797.47;4477138;31;35190;-67
2022/03/05 01:06:47;;;;;;;;;;;;;;;10.62;35.55;99789.91;4484645;31;34251;-66
2022/03/05 01:09:15;;;;;;;;;;;;;;;10.58;35.50;99787.59;4486017;31;35160;-65
2022/03/05 01:11:43;;;;;;;;;;;;;;;10.41;36.41;99788.84;4486097;31;34417;-66
2022/03/05 01:14:10;;;;;;;;;;;;;;;9.98;37.22;99789.22;4495169;31;34694;-66
2022/03/05 01:16:38;;;;;;;;;;;;;;;10.11;37.27;99792.75;4473900;31;35196;-67
2022/03/05 01:19:06;;;;;;;;;;;;;;;10.37;36.70;99792.69;4494910;31;34368;-68
2022/03/05 01:21:34;;;;;;;;;;;;;;;10.23;37.23;99793.66;4484752;32;32975;-67
2022/03/05 01:24:02;;;;;;;;;;;;;;;10.56;36.50;99784.16;4495955;31;34079;-65
2022/03/05 01:26:30;;;;;;;;;;;;;;;10.69;35.17;99787.66;4487680;31;33970;-64
2022/03/05 01:28:58;;;;;;;;;;;;;;;10.68;35.63;99789.44;4485205;31;33963;-66
2022/03/05 01:31:25;;;;;;;;;;;;;;;10.61;35.80;99790.88;4497164;31;31764;-66
2022/03/05 01:33:53;;;;;;;;;;;;;;;10.37;36.72;99790.88;4492864;31;33947;-64
2022/03/05 01:36:21;;;;;;;;;;;;;;;10.57;35.91;99785.88;4487129;31;32838;-66
2022/03/05 01:38:48;;;;;;;;;;;;;;;10.45;35.89;99785.81;4486377;31;34114;-64
2022/03/05 01:41:16;;;;;;;;;;;;;;;10.36;35.90;99797.19;4485933;31;33211;-66
2022/03/05 01:43:50;;;;;;;;;;;;;;;10.01;37.57;99789.00;4488845;31;34432;-66
2022/03/05 01:46:32;;;;;;;;;;;;;;;10.37;36.10;99790.00;4483322;31;34367;-64
2022/03/05 01:49:01;;;;;;;;;;;;;;;10.37;36.31;99795.34;4486263;31;34436;-64
2022/03/05 01:51:29;;;;;;;;;;;;;;;10.24;36.37;99790.88;4484707;31;33209;-65
2022/03/05 01:53:57;;;;;;;;;;;;;;;10.20;36.60;99796.56;4493184;31;34789;-66
2022/03/05 01:56:25;;;;;;;;;;;;;;;10.20;36.96;99791.22;4491872;31;34430;-66
2022/03/05 01:58:53;;;;;;;;;;;;;;;10.39;36.36;99790.75;4496008;31;35040;-64
2022/03/05 02:01:22;;;;;;;;;;;;;;;10.16;36.83;99793.25;4476499;31;34099;-66
2022/03/05 02:03:51;;;;;;;;;;;;;;;10.02;37.57;99799.59;4487025;31;34245;-66
2022/03/05 02:06:20;;;;;;;;;;;;;;;10.30;36.53;99805.66;4484233;31;33892;-66
2022/03/05 02:08:47;;;;;;;;;;;;;;;10.29;36.65;99803.94;4484109;31;33722;-65
2022/03/05 02:11:15;;;;;;;;;;;;;;;9.82;38.75;99802.81;4484064;31;33408;-64
2022/03/05 02:13:43;;;;;;;;;;;;;;;10.29;36.70;99798.59;4486105;31;33044;-66
2022/03/05 02:16:11;;;;;;;;;;;;;;;10.33;36.41;99804.56;4494731;31;34155;-65
2022/03/05 02:18:43;;;;;;;;;;;;;;;10.26;36.54;99804.16;4485652;31;35152;-66
2022/03/05 02:21:12;;;;;;;;;;;;;;;10.31;36.11;99806.53;4494880;31;34370;-66
2022/03/05 02:23:40;;;;;;;;;;;;;;;10.07;36.76;99803.75;4483455;31;33956;-64
2022/03/05 02:26:08;;;;;;;;;;;;;;;10.15;36.52;99815.63;4484786;31;34097;-66
2022/03/05 02:28:36;;;;;;;;;;;;;;;10.25;36.21;99813.13;4489729;31;34240;-66
2022/03/05 02:31:04;;;;;;;;;;;;;;;10.20;36.17;99813.44;4491849;31;33379;-66
2022/03/05 02:33:32;;;;;;;;;;;;;;;10.11;36.47;99816.81;4486658;31;34301;-65
2022/03/05 02:36:00;;;;;;;;;;;;;;;10.15;36.58;99807.59;4486307;31;34478;-68
2022/03/05 02:38:28;;;;;;;;;;;;;;;10.16;36.35;99809.31;4490438;31;34968;-66
2022/03/05 02:40:56;;;;;;;;;;;;;;;10.19;36.17;99813.59;4499192;31;33367;-66
2022/03/05 02:43:26;;;;;;;;;;;;;;;9.99;36.55;99815.00;4475730;31;32912;-65
2022/03/05 02:45:54;;;;;;;;;;;;;;;9.72;36.96;99815.12;4485147;31;34489;-66
2022/03/05 02:48:22;;;;;;;;;;;;;;;9.95;36.17;99810.81;4485414;31;34264;-65
2022/03/05 02:50:50;;;;;;;;;;;;;;;9.59;37.50;99827.63;4489058;31;33230;-65
2022/03/05 02:53:17;;;;;;;;;;;;;;;9.35;38.09;99815.03;4485685;31;34286;-65
2022/03/05 02:55:46;;;;;;;;;;;;;;;9.66;37.10;99813.75;4485066;31;34433;-64
2022/03/05 02:58:13;;;;;;;;;;;;;;;9.69;37.19;99816.19;4489677;31;34997;-66
2022/03/05 03:00:41;;;;;;;;;;;;;;;9.78;36.81;99818.22;4489337;31;33102;-68
2022/03/05 03:03:09;;;;;;;;;;;;;;;9.91;36.18;99807.50;4488234;31;35615;-63
2022/03/05 03:05:38;;;;;;;;;;;;;;;9.93;36.38;99816.28;4483742;31;35891;-64
2022/03/05 03:08:06;;;;;;;;;;;;;;;9.73;37.05;99814.19;4486770;31;33823;-65
2022/03/05 03:10:33;;;;;;;;;;;;;;;9.99;36.10;99817.69;4488595;31;34176;-66
2022/03/05 03:13:02;;;;;;;;;;;;;;;9.84;36.88;99826.78;4483728;31;33128;-67
2022/03/05 03:15:29;;;;;;;;;;;;;;;9.78;37.18;99817.37;4494317;31;35176;-64
2022/03/05 03:17:57;;;;;;;;;;;;;;;9.80;36.59;99826.16;4483032;31;33944;-65
2022/03/05 03:20:26;;;;;;;;;;;;;;;9.86;36.87;99822.19;4483925;31;34014;-64
2022/03/05 03:22:53;;;;;;;;;;;;;;;9.86;36.17;99828.41;4488639;31;34015;-66
2022/03/05 03:25:22;;;;;;;;;;;;;;;9.88;36.26;99829.12;4483897;31;35088;-67
2022/03/05 03:27:50;;;;;;;;;;;;;;;9.75;36.81;99817.59;4483650;31;34413;-66
2022/03/05 03:30:19;;;;;;;;;;;;;;;9.75;36.19;99814.91;4484877;31;33149;-65
2022/03/05 03:32:48;;;;;;;;;;;;;;;9.65;36.38;99814.69;4479650;31;33759;-64
2022/03/05 03:35:18;;;;;;;;;;;;;;;9.55;36.67;99817.16;4480087;31;33901;-64
2022/03/05 03:37:46;;;;;;;;;;;;;;;9.48;36.97;99821.22;4481921;31;33697;-65
2022/03/05 03:40:16;;;;;;;;;;;;;;;9.56;36.80;99823.34;4485268;31;33166;-65
2022/03/05 03:42:45;;;;;;;;;;;;;;;9.68;36.34;99817.16;4488478;31;33553;-66
2022/03/05 03:45:13;;;;;;;;;;;;;;;9.63;36.41;99818.44;4484628;31;34425;-66
2022/03/05 03:47:42;;;;;;;;;;;;;;;9.50;36.69;99816.66;4480409;31;35060;-65
2022/03/05 03:50:11;;;;;;;;;;;;;;;9.30;36.85;99822.47;4485772;31;33665;-64
2022/03/05 03:52:41;;;;;;;;;;;;;;;9.07;37.43;99822.22;4490910;31;33106;-63
2022/03/05 03:55:11;;;;;;;;;;;;;;;9.11;37.46;99828.22;4478935;31;34443;-63
2022/03/05 03:57:40;;;;;;;;;;;;;;;9.41;36.50;99819.94;4480183;31;34038;-64
2022/03/05 04:00:10;;;;;;;;;;;;;;;9.05;37.44;99816.16;4484511;31;32274;-65
2022/03/05 04:02:38;;;;;;;;;;;;;;;9.15;37.33;99816.38;4481750;31;33932;-64
2022/03/05 04:05:07;;;;;;;;;;;;;;;9.16;37.31;99820.75;4485917;31;33334;-65
2022/03/05 04:10:23;;;;;;;;;;;;;;;9.01;37.74;99819.97;4490789;31;34197;-65
2022/03/05 04:12:51;;;;;;;;;;;;;;;9.18;37.20;99818.84;4485725;31;34176;-63
2022/03/05 04:15:20;;;;;;;;;;;;;;;9.27;36.83;99812.00;4482906;31;35505;-64
2022/03/05 04:17:50;;;;;;;;;;;;;;;9.51;35.94;99821.00;4478645;31;32799;-65
2022/03/05 04:20:18;;;;;;;;;;;;;;;9.62;35.60;99822.09;4485485;31;32486;-65
2022/03/05 04:22:47;;;;;;;;;;;;;;;9.40;36.13;99826.22;4465367;32;33476;-64
2022/03/05 04:25:15;;;;;;;;;;;;;;;9.61;35.72;99831.06;4483868;31;34300;-66
2022/03/05 04:27:44;;;;;;;;;;;;;;;9.66;35.83;99839.59;4487778;31;34288;-64
2022/03/05 04:30:12;;;;;;;;;;;;;;;9.35;36.39;99844.41;4484896;31;32117;-64
2022/03/05 04:32:41;;;;;;;;;;;;;;;9.53;35.79;99829.78;4484510;31;32595;-64
2022/03/05 04:35:09;;;;;;;;;;;;;;;9.59;35.40;99836.50;4489402;31;33342;-64
2022/03/05 04:37:38;;;;;;;;;;;;;;;9.48;35.29;99834.59;4483544;31;33785;-65
2022/03/05 04:40:07;;;;;;;;;;;;;;;9.17;36.47;99848.31;4490865;31;33195;-64
2022/03/05 04:42:35;;;;;;;;;;;;;;;8.96;36.96;99842.63;4477083;31;34002;-64
2022/03/05 04:45:05;;;;;;;;;;;;;;;9.04;36.98;99843.78;4482603;31;34197;-66
2022/03/05 04:47:34;;;;;;;;;;;;;;;9.37;36.29;99853.16;4490801;31;32694;-64
2022/03/05 04:50:03;;;;;;;;;;;;;;;9.37;36.36;99849.63;4488989;31;33126;-65
2022/03/05 04:52:31;;;;;;;;;;;;;;;8.91;36.90;99842.91;4489274;31;33169;-66
2022/03/05 04:55:01;;;;;;;;;;;;;;;9.20;36.61;99850.78;4485345;31;33209;-64
2022/03/05 04:57:30;;;;;;;;;;;;;;;9.25;36.56;99852.19;4481884;31;33519;-65
2022/03/05 04:59:58;;;;;;;;;;;;;;;9.29;36.44;99847.50;4484133;31;34020;-63
2022/03/05 05:02:26;;;;;;;;;;;;;;;8.85;37.17;99846.81;4485724;31;35072;-64
2022/03/05 05:04:55;;;;;;;;;;;;;;;9.21;36.46;99840.00;4482608;31;33356;-66
2022/03/05 05:07:24;;;;;;;;;;;;;;;8.98;36.82;99844.19;4487957;31;34853;-66
2022/03/05 05:09:53;;;;;;;;;;;;;;;9.28;36.35;99845.78;4482617;31;33469;-65
2022/03/05 05:12:22;;;;;;;;;;;;;;;9.18;36.51;99852.69;4484355;31;32972;-65
2022/03/05 05:14:51;;;;;;;;;;;;;;;9.28;36.30;99841.28;4482928;31;35481;-65
2022/03/05 05:17:20;;;;;;;;;;;;;;;9.52;35.35;99844.09;4486669;31;33951;-63
2022/03/05 05:19:48;;;;;;;;;;;;;;;9.47;35.46;99853.38;4485677;31;34224;-64
2022/03/05 05:22:17;;;;;;;;;;;;;;;9.52;35.41;99851.25;4493478;31;32392;-64
2022/03/05 05:24:44;;;;;;;;;;;;;;;9.47;35.95;99856.03;4484791;31;34221;-63
2022/03/05 05:27:12;;;;;;;;;;;;;;;9.13;36.93;99860.16;4486781;31;32775;-64
2022/03/05 05:29:40;;;;;;;;;;;;;;;9.40;36.17;99865.44;4485358;31;33389;-66
2022/03/05 05:32:10;;;;;;;;;;;;;;;9.14;36.46;99864.53;4491112;31;34123;-65
2022/03/05 05:34:41;;;;;;;;;;;;;;;9.24;36.77;99865.63;4486273;31;34237;-66
2022/03/05 05:37:15;;;;;;;;;;;;;;;9.49;35.85;99864.81;4488987;31;34998;-65
2022/03/05 05:39:44;;;;;;;;;;;;;;;9.33;36.06;99865.00;4494051;31;33291;-64
2022/03/05 05:42:12;;;;;;;;;;;;;;;9.17;36.99;99864.34;4487461;31;37260;-66
2022/03/05 05:44:41;;;;;;;;;;;;;;;9.18;36.80;99866.03;4490885;31;34195;-65
2022/03/05 05:47:13;;;;;;;;;;;;;;;9.14;36.86;99868.06;4489594;31;34533;-66
2022/03/05 05:49:53;;;;;;;;;;;;;;;9.70;35.34;99870.53;4489489;31;32089;-65
2022/03/05 05:52:22;;;;;;;;;;;;;;;9.45;36.36;99869.53;4485782;31;32015;-65
2022/03/05 05:54:50;;;;;;;;;;;;;;;9.82;34.95;99874.16;4485436;31;34397;-65
2022/03/05 05:57:20;;;;;;;;;;;;;;;9.37;36.00;99877.19;4489685;31;33761;-64
2022/03/05 05:59:48;;;;;;;;;;;;;;;9.72;35.29;99873.94;4491826;31;32380;-67
2022/03/05 06:02:16;;;;;;;;;;;;;;;9.44;35.93;99877.66;4491457;31;34253;-66
2022/03/05 06:04:45;;;;;;;;;;;;;;;9.71;35.37;99890.94;4482883;31;34356;-64
2022/03/05 06:07:15;;;;;;;;;;;;;;;9.89;34.78;99888.81;4486634;31;34280;-67
2022/03/05 06:09:44;;;;;;;;;;;;;;;9.88;34.83;99887.94;4482076;31;32157;-66
2022/03/05 06:12:16;;;;;;;;;;;;;;;9.69;35.38;99892.84;4485347;31;33305;-68
2022/03/05 06:14:44;;;;;;;;;;;;;;;9.83;35.13;99887.41;4496937;31;33009;-66
2022/03/05 06:17:12;;;;;;;;;;;;;;;9.86;35.31;99889.88;4485134;31;34254;-68
2022/03/05 06:19:42;;;;;;;;;;;;;;;9.71;35.82;99898.97;4481976;31;34181;-69
2022/03/05 06:22:12;;;;;;;;;;;;;;;9.87;35.54;99894.25;4483220;31;33745;-68
2022/03/05 06:24:41;;;;;;;;;;;;;;;9.92;35.04;99893.94;4486092;31;33221;-69
2022/03/05 06:27:10;;;;;;;;;;;;;;;9.71;35.54;99906.97;4481211;31;34485;-68
2022/03/05 06:29:39;;;;;;;;;;;;;;;9.95;35.02;99907.09;4482202;31;33121;-68
2022/03/05 06:32:08;;;;;;;;;;;;;;;9.76;35.86;99912.88;4483994;31;34057;-68
2022/03/05 06:34:40;;;;;;;;;;;;;;;9.76;35.37;99910.19;4485616;31;33413;-68
2022/03/05 06:37:14;;;;;;;;;;;;;;;9.72;35.48;99908.69;4485611;31;32303;-68
2022/03/05 06:39:43;;;;;;;;;;;;;;;9.38;36.40;99907.47;4484817;31;34241;-67
2022/03/05 06:42:12;;;;;;;;;;;;;;;9.46;36.26;99918.47;4483141;31;34123;-67
2022/03/05 06:44:43;;;;;;;;;;;;;;;9.65;35.66;99912.75;4485318;31;33963;-66
2022/03/05 06:47:11;;;;;;;;;;;;;;;9.61;35.54;99912.09;4485793;31;34991;-68
2022/03/05 06:49:41;;;;;;;;;;;;;;;9.58;35.35;99909.63;4482604;31;34188;-69
2022/03/05 06:52:12;;;;;;;;;;;;;;;9.64;35.60;99913.72;4489416;31;33197;-67
2022/03/05 06:54:42;;;;;;;;;;;;;;;9.65;35.49;99910.91;4484913;31;35256;-66
2022/03/05 06:57:11;;;;;;;;;;;;;;;9.57;35.99;99914.12;4485315;31;33085;-67
2022/03/05 06:59:41;;;;;;;;;;;;;;;9.73;35.82;99924.63;4484473;31;32407;-67
2022/03/05 07:02:12;;;;;;;;;;;;;;;9.94;35.51;99916.06;4487149;31;34194;-66
2022/03/05 07:04:40;;;;;;;;;;;;;;;9.96;35.16;99915.00;4485488;31;34518;-67
2022/03/05 07:07:08;;;;;;;;;;;;;;;9.92;34.99;99916.19;4484880;31;33853;-68
2022/03/05 07:09:37;;;;;;;;;;;;;;;9.98;35.21;99915.78;4484911;31;33477;-66
2022/03/05 07:12:07;;;;;;;;;;;;;;;9.96;34.99;99920.34;4491835;31;32856;-65
2022/03/05 07:14:37;;;;;;;;;;;;;;;10.12;34.51;99920.16;4484270;31;33702;-65
2022/03/05 07:17:07;;;;;;;;;;;;;;;8.88;36.92;99919.66;4493257;31;33165;-66
2022/03/05 07:19:38;;;;;;;;;;;;;;;9.22;35.65;99920.97;4486913;31;34450;-65
2022/03/05 07:22:12;;;;;;;;;;;;;;;8.83;36.97;99919.97;4485012;31;34510;-66
2022/03/05 07:24:48;;;;;;;;;;;;;;;9.49;35.21;99926.28;4483994;31;35404;-65
2022/03/05 07:27:19;;;;;;;;;;;;;;;8.67;36.52;99927.22;4482249;31;34156;-65
2022/03/05 07:29:50;;;;;;;;;;;;;;;8.19;37.70;99926.69;4487046;31;33183;-64
2022/03/05 07:32:23;;;;;;;;;;;;;;;9.05;36.45;99928.28;4484236;31;34350;-65
2022/03/05 07:34:53;;;;;;;;;;;;;;;9.63;34.72;99922.66;4484677;31;32448;-67
2022/03/05 07:37:27;;;;;;;;;;;;;;;9.62;35.90;99929.81;4490800;31;35157;-69
2022/03/05 07:39:58;;;;;;;;;;;;;;;9.48;36.34;99930.78;4487550;31;33217;-67
2022/03/05 07:42:29;;;;;;;;;;;;;;;9.57;35.83;99937.31;4487225;31;32967;-65
2022/03/05 07:44:57;;;;;;;;;;;;;;;9.93;34.92;99933.94;4494175;31;35445;-66
2022/03/05 07:47:27;;;;;;;;;;;;;;;9.71;35.29;99931.03;4485659;31;34034;-65
2022/03/05 07:50:00;;;;;;;;;;;;;;;9.80;34.97;99933.06;4491446;31;33220;-64
2022/03/05 07:52:36;;;;;;;;;;;;;;;10.15;34.20;99938.66;4493238;31;33931;-65
2022/03/05 07:55:07;;;;;;;;;;;;;;;10.55;34.00;99930.50;4475274;31;33104;-65
2022/03/05 07:57:43;;;;;;;;;;;;;;;10.63;34.12;99932.66;4492755;31;33518;-65
2022/03/05 08:00:17;;;;;;;;;;;;;;;10.68;33.89;99942.03;4485204;31;32220;-65
2022/03/05 08:02:51;;;;;;;;;;;;;;;10.76;33.89;99944.19;4484344;31;34030;-65
2022/03/05 08:05:21;;;;;;;;;;;;;;;11.13;33.44;99945.00;4491295;31;33901;-65
2022/03/05 08:07:54;;;;;;;;;;;;;;;10.95;33.74;99957.09;4489866;31;33089;-65
2022/03/05 08:10:33;;;;;;;;;;;;;;;11.30;33.15;99953.59;4487225;31;33522;-67
2022/03/05 08:13:01;;;;;;;;;;;;;;;11.17;33.06;99957.22;4484840;31;34047;-67
2022/03/05 08:15:31;;;;;;;;;;;;;;;10.49;34.18;99957.69;4487149;31;34394;-64
2022/03/05 08:18:09;;;;;;;;;;;;;;;10.20;34.82;99957.03;4488482;31;33921;-65
2022/03/05 08:20:49;;;;;;;;;;;;;;;10.42;34.51;99954.59;4484291;31;33562;-65
2022/03/05 08:23:21;;;;;;;;;;;;;;;10.29;34.98;99955.59;4492074;31;33018;-63
2022/03/05 08:25:52;;;;;;;;;;;;;;;10.02;35.67;99957.38;4491534;31;33312;-65
2022/03/05 08:28:25;;;;;;;;;;;;;;;10.43;35.29;99956.34;4484307;31;35155;-65
2022/03/05 08:30:57;;;;;;;;;;;;;;;10.55;34.45;99953.75;4490883;31;33087;-65
2022/03/05 08:33:30;;;;;;;;;;;;;;;10.16;34.85;99955.56;4488820;31;33125;-65
2022/03/05 08:36:09;;;;;;;;;;;;;;;10.30;35.10;99960.81;4491114;31;34595;-65
2022/03/05 08:38:44;;;;;;;;;;;;;;;10.45;34.55;99966.91;4484564;31;33681;-66
2022/03/05 08:41:22;;;;;;;;;;;;;;;10.41;35.61;99963.59;4495523;31;34444;-65
2022/03/05 08:43:58;;;;;;;;;;;;;;;9.99;35.87;99972.78;4492827;31;32617;-68
2022/03/05 08:46:32;;;;;;;;;;;;;;;9.96;35.63;99965.81;4490350;31;33214;-70
2022/03/05 08:49:07;;;;;;;;;;;;;;;9.79;35.77;99958.97;4485514;31;34294;-67
2022/03/05 08:51:44;;;;;;;;;;;;;;;8.82;38.51;99959.12;4492735;31;31805;-69
2022/03/05 08:54:17;;;;;;;;;;;;;;;7.68;40.78;99970.56;4493441;31;33396;-67
2022/03/05 08:56:52;;;;;;;;;;;;;;;8.52;39.48;99971.75;4500483;31;34358;-67
2022/03/05 08:59:26;;;;;;;;;;;;;;;7.53;41.75;99965.28;4492623;31;33010;-67
2022/03/05 09:01:57;;;;;;;;;;;;;;;7.88;40.10;99969.38;4491508;31;33085;-67
2022/03/05 09:04:28;;;;;;;;;;;;;;;8.23;39.99;99961.06;4486380;31;33453;-67
2022/03/05 09:07:02;;;;;;;;;;;;;;;8.36;39.72;99966.47;4489893;31;33312;-67
2022/03/05 09:09:40;;;;;;;;;;;;;;;7.98;40.09;99968.81;4485542;31;33010;-68
2022/03/05 09:12:13;;;;;;;;;;;;;;;8.19;39.90;99962.19;4486135;31;32472;-67
2022/03/05 09:14:49;;;;;;;;;;;;;;;8.32;39.39;99967.62;4485194;31;34148;-69
2022/03/05 09:17:20;;;;;;;;;;;;;;;8.44;39.09;99964.22;4485402;31;35344;-67
2022/03/05 09:19:53;;;;;;;;;;;;;;;8.48;38.31;99956.91;4486364;31;33818;-68
2022/03/05 09:22:25;;;;;;;;;;;;;;;9.06;37.81;99961.19;4489265;31;32128;-68
2022/03/05 09:24:54;;;;;;;;;;;;;;;9.28;37.07;99950.81;4492918;31;34173;-67
2022/03/05 09:27:33;;;;;;;;;;;;;;;9.40;36.35;99953.59;4489998;31;34612;-67
2022/03/05 09:30:06;;;;;;;;;;;;;;;9.92;35.62;99955.41;4485416;31;32736;-66
2022/03/05 09:32:36;;;;;;;;;;;;;;;9.74;33.35;99953.06;4488800;31;33213;-67
2022/03/05 09:35:09;;;;;;;;;;;;;;;9.40;34.68;99957.13;4489360;31;34004;-64
2022/03/05 09:37:45;;;;;;;;;;;;;;;9.74;33.45;99957.56;4489976;31;33982;-65
2022/03/05 09:40:14;;;;;;;;;;;;;;;9.73;34.55;99958.53;4491111;31;35170;-66
2022/03/05 09:42:45;;;;;;;;;;;;;;;9.96;33.89;99957.78;4488535;31;33442;-66
2022/03/05 09:45:19;;;;;;;;;;;;;;;10.14;33.28;99955.66;4496598;31;34312;-65
2022/03/05 09:47:52;;;;;;;;;;;;;;;10.30;33.75;99957.28;4485055;31;34191;-65
2022/03/05 09:50:32;;;;;;;;;;;;;;;10.46;32.92;99952.56;4485547;31;35136;-64
2022/03/05 09:53:02;;;;;;;;;;;;;;;10.25;32.08;99947.75;4494304;31;35774;-66
2022/03/05 09:55:37;;;;;;;;;;;;;;;11.18;31.58;99944.69;4497198;31;33839;-65
2022/03/05 09:58:29;;;;;;;;;;;;;;;11.44;29.92;99945.41;4484614;31;33458;-65
2022/03/05 10:01:03;;;;;;;;;;;;;;;11.24;31.62;99948.72;4483930;31;34750;-67
2022/03/05 10:03:45;;;;;;;;;;;;;;;11.36;30.62;99946.00;4495731;31;32182;-65
2022/03/05 10:06:23;;;;;;;;;;;;;;;11.50;30.51;99950.31;4490245;31;35791;-65
2022/03/05 10:08:57;;;;;;;;;;;;;;;12.15;28.79;99940.87;4484541;31;34434;-65
2022/03/05 10:11:39;;;;;;;;;;;;;;;12.57;29.09;99951.88;4488754;31;34569;-66
2022/03/05 10:14:19;;;;;;;;;;;;;;;12.52;28.82;99946.00;4484551;31;33746;-65
2022/03/05 10:16:47;;;;;;;;;;;;;;;12.46;26.98;99946.53;4488940;31;35246;-65
2022/03/05 10:19:23;;;;;;;;;;;;;;;11.72;28.30;99937.94;4484513;31;33503;-67
2022/03/05 10:22:00;;;;;;;;;;;;;;;11.48;28.89;99946.88;4497051;31;33909;-64
2022/03/05 10:24:30;;;;;;;;;;;;;;;11.17;28.83;99937.59;4484662;31;32413;-65
2022/03/05 10:27:03;;;;;;;;;;;;;;;11.77;28.97;99933.09;4495379;31;33719;-65
2022/03/05 10:29:37;;;;;;;;;;;;;;;11.95;29.10;99938.91;4495182;31;35431;-65
2022/03/05 10:32:11;;;;;;;;;;;;;;;12.15;29.11;99934.66;4486169;31;33858;-65
2022/03/05 10:34:44;;;;;;;;;;;;;;;12.58;28.02;99940.16;4492170;31;32419;-65
2022/03/05 10:37:22;;;;;;;;;;;;;;;12.93;27.90;99941.84;4488012;31;33641;-66
2022/03/05 10:39:52;;;;;;;;;;;;;;;12.01;27.27;99935.75;4483657;31;34533;-65
2022/03/05 10:42:24;;;;;;;;;;;;;;;12.23;28.65;99938.47;4491664;31;35664;-67
2022/03/05 10:45:04;;;;;;;;;;;;;;;12.68;26.76;99932.22;4484190;31;32227;-67
2022/03/05 10:47:39;;;;;;;;;;;;;;;12.66;27.45;99928.81;4485185;31;33899;-65
2022/03/05 10:50:22;;;;;;;;;;;;;;;13.15;27.08;99922.97;4482894;31;35860;-65
2022/03/05 10:52:51;;;;;;;;;;;;;;;12.73;27.38;99927.34;4483548;31;33080;-65
2022/03/05 10:55:23;;;;;;;;;;;;;;;13.46;26.18;99928.53;4491670;31;30946;-65
2022/03/05 10:57:55;;;;;;;;;;;;;;;12.48;27.85;99931.13;4498105;31;33036;-66
2022/03/05 11:00:31;;;;;;;;;;;;;;;12.93;26.03;99933.78;4488647;31;33023;-65
2022/03/05 11:03:02;;;;;;;;;;;;;;;13.14;26.13;99925.81;4484969;31;35135;-65
2022/03/05 11:05:34;;;;;;;;;;;;;;;13.62;25.68;99923.56;4487340;31;33212;-65
2022/03/05 11:08:09;;;;;;;;;;;;;;;12.75;26.10;99918.19;4489946;31;33929;-65
2022/03/05 11:10:44;;;;;;;;;;;;;;;12.14;26.81;99924.91;4475446;31;32787;-65
2022/03/05 11:13:14;;;;;;;;;;;;;;;12.15;27.63;99923.94;4491860;31;35176;-65
2022/03/05 11:15:47;;;;;;;;;;;;;;;12.65;26.84;99917.22;4483125;31;34171;-66
2022/03/05 11:18:16;;;;;;;;;;;;;;;13.38;25.75;99915.72;4490201;31;34004;-67
2022/03/05 11:20:45;;;;;;;;;;;;;;;13.46;26.88;99917.78;4471073;31;33968;-66
2022/03/05 11:23:14;;;;;;;;;;;;;;;13.52;26.16;99912.72;4484305;31;32607;-65
2022/03/05 11:25:45;;;;;;;;;;;;;;;12.75;26.15;99907.44;4483487;31;33036;-65
2022/03/05 11:28:18;;;;;;;;;;;;;;;13.22;26.00;99908.03;4494973;31;34261;-66
2022/03/05 11:30:56;;;;;;;;;;;;;;;12.22;28.12;99907.22;4490063;31;35457;-67
2022/03/05 11:33:38;;;;;;;;;;;;;;;12.96;26.74;99904.81;4488164;31;34249;-66
2022/03/05 11:36:08;;;;;;;;;;;;;;;13.90;24.91;99897.84;4483671;31;33476;-65
2022/03/05 11:38:37;;;;;;;;;;;;;;;12.98;25.31;99902.03;4472118;32;34203;-68
2022/03/05 11:41:20;;;;;;;;;;;;;;;12.85;24.96;99895.97;4491694;31;35402;-66
2022/03/05 11:43:53;;;;;;;;;;;;;;;13.48;25.33;99894.28;4483542;31;33875;-66
2022/03/05 11:46:23;;;;;;;;;;;;;;;13.22;25.13;99893.75;4485520;31;33384;-66
2022/03/05 11:49:04;;;;;;;;;;;;;;;13.79;24.46;99900.59;4482632;31;34239;-68
2022/03/05 11:51:34;;;;;;;;;;;;;;;14.08;24.16;99894.53;4489326;31;35521;-67
2022/03/05 11:54:06;;;;;;;;;;;;;;;13.77;24.81;99889.09;4495016;31;35404;-66
2022/03/05 11:57:11;;;;;;;;;;;;;;;13.98;24.66;99892.66;4486896;31;34073;-68
2022/03/05 11:59:50;;;;;;;;;;;;;;;13.47;25.45;99890.75;4486869;31;32772;-67
2022/03/05 12:02:38;;;;;;;;;;;;;;;13.75;24.21;99888.41;4486519;31;33046;-66
2022/03/05 12:05:08;;;;;;;;;;;;;;;13.94;24.02;99885.00;4488732;31;32798;-67
2022/03/05 12:07:41;;;;;;;;;;;;;;;13.39;24.86;99876.25;4497953;31;34333;-66
2022/03/05 12:10:11;;;;;;;;;;;;;;;13.64;25.42;99883.97;4487800;31;33805;-68
2022/03/05 12:12:52;;;;;;;;;;;;;;;13.50;25.35;99884.25;4491428;31;34432;-66
2022/03/05 12:15:30;;;;;;;;;;;;;;;14.32;24.42;99883.50;4487510;31;33456;-67
2022/03/05 12:18:03;;;;;;;;;;;;;;;14.27;23.96;99870.41;4476132;31;33490;-69
2022/03/05 12:20:35;;;;;;;;;;;;;;;13.42;24.97;99867.94;4492832;31;34078;-66
2022/03/05 12:23:11;;;;;;;;;;;;;;;14.61;24.64;99864.78;4486532;31;34141;-67
2022/03/05 12:25:44;;;;;;;;;;;;;;;14.94;23.14;99865.41;4487084;31;34808;-67
2022/03/05 12:28:15;;;;;;;;;;;;;;;14.74;23.82;99865.38;4491945;31;33889;-66
2022/03/05 12:30:46;;;;;;;;;;;;;;;14.39;24.27;99865.78;4487056;31;35189;-67
2022/03/05 12:33:18;;;;;;;;;;;;;;;14.12;24.81;99871.75;4487733;31;33426;-67
2022/03/05 12:35:48;;;;;;;;;;;;;;;14.63;24.44;99869.00;4487521;31;33963;-67
2022/03/05 12:38:19;;;;;;;;;;;;;;;14.98;23.27;99864.97;4486952;31;33222;-67
2022/03/05 12:40:49;;;;;;;;;;;;;;;14.14;23.64;99867.09;4484040;31;34597;-67
2022/03/05 12:43:19;;;;;;;;;;;;;;;14.34;23.75;99863.50;4484901;31;35555;-68
2022/03/05 12:45:50;;;;;;;;;;;;;;;13.74;25.37;99860.66;4487005;31;32990;-67
2022/03/05 12:48:23;;;;;;;;;;;;;;;14.32;24.43;99867.34;4488245;31;33675;-67
2022/03/05 12:50:56;;;;;;;;;;;;;;;14.37;24.06;99862.38;4486443;31;32465;-67
2022/03/05 12:53:35;;;;;;;;;;;;;;;14.59;24.22;99862.19;4484441;31;34434;-67
2022/03/05 12:56:09;;;;;;;;;;;;;;;14.76;23.89;99860.66;4481906;31;35713;-67
2022/03/05 12:58:40;;;;;;;;;;;;;;;15.25;22.54;99863.41;4488204;31;32582;-66
2022/03/05 13:01:11;;;;;;;;;;;;;;;14.49;23.28;99863.97;4483769;31;34637;-67
2022/03/05 13:03:42;;;;;;;;;;;;;;;14.63;23.66;99860.06;4488237;31;35367;-68
2022/03/05 13:06:11;;;;;;;;;;;;;;;14.54;23.71;99863.59;4484854;31;33778;-67
2022/03/05 13:08:41;;;;;;;;;;;;;;;14.57;23.70;99858.78;4485541;31;32502;-68
2022/03/05 13:11:12;;;;;;;;;;;;;;;14.84;23.16;99857.28;4484389;31;34223;-67